sensor_id;sensor_type;location;lat;lon;timestamp;pressure;altitude;pressure_sealevel;temperature;humidity
68807;BME280;55800;54.272;18.558;2023-04-05T00:01:45;101684.34;;;1.44;51.45
68807;BME280;55800;54.272;18.558;2023-04-05T00:04:17;101678.22;;;1.45;51.87
68807;BME280;55800;54.272;18.558;2023-04-05T00:06:48;101679.97;;;1.46;51.62
68807;BME280;55800;54.272;18.558;2023-04-05T00:09:20;101680.94;;;1.50;51.86
68807;BME280;55800;54.272;18.558;2023-04-05T00:11:50;101690.69;;;1.58;51.57
68807;BME280;55800;54.272;18.558;2023-04-05T00:14:20;101681.94;;;1.61;51.60
68807;BME280;55800;54.272;18.558;2023-04-05T00:16:50;101683.63;;;1.57;51.67
68807;BME280;55800;54.272;18.558;2023-04-05T00:19:19;101680.09;;;1.55;51.34
68807;BME280;55800;54.272;18.558;2023-04-05T00:21:50;101680.09;;;1.55;51.43
68807;BME280;55800;54.272;18.558;2023-04-05T00:24:21;101679.25;;;1.56;51.37
68807;BME280;55800;54.272;18.558;2023-04-05T00:26:52;101679.22;;;1.55;51.70
68807;BME280;55800;54.272;18.558;2023-04-05T00:29:22;101667.94;;;1.67;51.68
68807;BME280;55800;54.272;18.558;2023-04-05T00:31:51;101675.91;;;1.73;51.28
68807;BME280;55800;54.272;18.558;2023-04-05T00:34:20;101671.41;;;1.63;51.82
68807;BME280;55800;54.272;18.558;2023-04-05T00:36:49;101669.63;;;1.62;51.79
68807;BME280;55800;54.272;18.558;2023-04-05T00:39:19;101668.72;;;1.58;51.94
68807;BME280;55800;54.272;18.558;2023-04-05T00:41:48;101664.22;;;1.49;52.30
68807;BME280;55800;54.272;18.558;2023-04-05T00:44:19;101662.56;;;1.57;52.05
68807;BME280;55800;54.272;18.558;2023-04-05T00:46:48;101664.38;;;1.63;51.54
68807;BME280;55800;54.272;18.558;2023-04-05T00:49:18;101663.44;;;1.58;52.17
68807;BME280;55800;54.272;18.558;2023-04-05T00:51:48;101666.91;;;1.52;51.92
68807;BME280;55800;54.272;18.558;2023-04-05T00:54:18;101662.56;;;1.57;52.23
68807;BME280;55800;54.272;18.558;2023-04-05T00:56:47;101664.34;;;1.62;52.27
68807;BME280;55800;54.272;18.558;2023-04-05T00:59:21;101665.19;;;1.56;52.19
68807;BME280;55800;54.272;18.558;2023-04-05T01:01:59;101662.50;;;1.53;52.00
68807;BME280;55800;54.272;18.558;2023-04-05T01:04:31;101667.72;;;1.48;52.34
68807;BME280;55800;54.272;18.558;2023-04-05T01:07:08;101658.09;;;1.50;52.04
68807;BME280;55800;54.272;18.558;2023-04-05T01:09:47;101665.06;;;1.44;52.35
68807;BME280;55800;54.272;18.558;2023-04-05T01:12:22;101656.13;;;1.34;52.59
68807;BME280;55800;54.272;18.558;2023-04-05T01:14:54;101656.91;;;1.26;52.42
68807;BME280;55800;54.272;18.558;2023-04-05T01:17:25;101661.31;;;1.27;52.00
68807;BME280;55800;54.272;18.558;2023-04-05T01:19:57;101649.91;;;1.28;52.02
68807;BME280;55800;54.272;18.558;2023-04-05T01:29:05;101659.28;;;1.05;52.56
68807;BME280;55800;54.272;18.558;2023-04-05T01:31:46;101656.56;;;1.00;52.44
68807;BME280;55800;54.272;18.558;2023-04-05T01:34:19;101647.75;;;0.95;53.04
68807;BME280;55800;54.272;18.558;2023-04-05T01:36:56;101645.00;;;0.88;52.38
68807;BME280;55800;54.272;18.558;2023-04-05T01:39:27;101650.19;;;0.82;52.58
68807;BME280;55800;54.272;18.558;2023-04-05T01:41:58;101649.28;;;0.81;52.50
68807;BME280;55800;54.272;18.558;2023-04-05T01:44:28;101642.22;;;0.78;52.81
68807;BME280;55800;54.272;18.558;2023-04-05T01:46:59;101648.38;;;0.76;53.12
68807;BME280;55800;54.272;18.558;2023-04-05T01:49:28;101645.66;;;0.73;52.74
68807;BME280;55800;54.272;18.558;2023-04-05T01:51:58;101648.31;;;0.74;52.29
68807;BME280;55800;54.272;18.558;2023-04-05T01:54:28;101641.22;;;0.67;52.49
68807;BME280;55800;54.272;18.558;2023-04-05T01:56:58;101643.81;;;0.66;52.96
68807;BME280;55800;54.272;18.558;2023-04-05T01:59:29;101639.34;;;0.62;52.78
68807;BME280;55800;54.272;18.558;2023-04-05T02:02:01;101642.81;;;0.56;52.56
68807;BME280;55800;54.272;18.558;2023-04-05T02:04:30;101633.94;;;0.51;53.01
68807;BME280;55800;54.272;18.558;2023-04-05T02:07:00;101646.19;;;0.48;52.78
68807;BME280;55800;54.272;18.558;2023-04-05T02:09:29;101638.28;;;0.48;52.29
68807;BME280;55800;54.272;18.558;2023-04-05T02:11:59;101635.50;;;0.39;52.89
68807;BME280;55800;54.272;18.558;2023-04-05T02:14:28;101632.78;;;0.33;53.47
68807;BME280;55800;54.272;18.558;2023-04-05T02:16:59;101635.41;;;0.33;52.72
68807;BME280;55800;54.272;18.558;2023-04-05T02:19:30;101637.16;;;0.32;52.99
68807;BME280;55800;54.272;18.558;2023-04-05T02:22:08;101626.69;;;0.34;52.48
68807;BME280;55800;54.272;18.558;2023-04-05T02:24:37;101624.78;;;0.25;53.14
68807;BME280;55800;54.272;18.558;2023-04-05T02:27:07;101627.34;;;0.21;53.00
68807;BME280;55800;54.272;18.558;2023-04-05T02:29:36;101626.38;;;0.17;52.70
68807;BME280;55800;54.272;18.558;2023-04-05T02:32:07;101629.00;;;0.16;53.33
68807;BME280;55800;54.272;18.558;2023-04-05T02:34:37;101630.78;;;0.17;52.73
68807;BME280;55800;54.272;18.558;2023-04-05T02:37:08;101626.28;;;0.11;53.40
68807;BME280;55800;54.272;18.558;2023-04-05T02:39:37;101620.19;;;0.11;53.81
68807;BME280;55800;54.272;18.558;2023-04-05T02:42:07;101618.44;;;0.13;53.67
68807;BME280;55800;54.272;18.558;2023-04-05T02:44:36;101615.81;;;0.13;53.40
68807;BME280;55800;54.272;18.558;2023-04-05T02:47:07;101622.75;;;0.08;52.51
68807;BME280;55800;54.272;18.558;2023-04-05T02:49:36;101611.22;;;0.01;52.78
68807;BME280;55800;54.272;18.558;2023-04-05T02:52:06;101618.13;;;-0.06;53.76
68807;BME280;55800;54.272;18.558;2023-04-05T02:54:38;101616.31;;;-0.10;53.38
68807;BME280;55800;54.272;18.558;2023-04-05T02:57:09;101614.59;;;-0.06;53.21
68807;BME280;55800;54.272;18.558;2023-04-05T02:59:49;101623.34;;;-0.09;53.50
68807;BME280;55800;54.272;18.558;2023-04-05T03:02:22;101618.94;;;-0.11;53.47
68807;BME280;55800;54.272;18.558;2023-04-05T03:04:53;101622.41;;;-0.12;52.95
68807;BME280;55800;54.272;18.558;2023-04-05T03:07:23;101610.88;;;-0.19;53.91
68807;BME280;55800;54.272;18.558;2023-04-05T03:09:52;101614.41;;;-0.20;54.40
68807;BME280;55800;54.272;18.558;2023-04-05T03:12:22;101614.28;;;-0.26;54.35
68807;BME280;55800;54.272;18.558;2023-04-05T03:14:52;101620.38;;;-0.28;54.48
68807;BME280;55800;54.272;18.558;2023-04-05T03:17:25;101612.47;;;-0.30;53.93
68807;BME280;55800;54.272;18.558;2023-04-05T03:19:59;101621.38;;;-0.22;53.25
68807;BME280;55800;54.272;18.558;2023-04-05T03:22:37;101614.22;;;-0.29;54.41
68807;BME280;55800;54.272;18.558;2023-04-05T03:25:07;101612.50;;;-0.28;53.77
68807;BME280;55800;54.272;18.558;2023-04-05T03:27:49;101617.75;;;-0.28;54.12
68807;BME280;55800;54.272;18.558;2023-04-05T03:30:20;101612.47;;;-0.30;54.16
68807;BME280;55800;54.272;18.558;2023-04-05T03:32:57;101608.97;;;-0.29;53.37
68807;BME280;55800;54.272;18.558;2023-04-05T03:35:44;101616.00;;;-0.28;53.21
68807;BME280;55800;54.272;18.558;2023-04-05T03:38:14;101606.31;;;-0.30;53.07
68807;BME280;55800;54.272;18.558;2023-04-05T03:41:02;101605.38;;;-0.34;54.39
68807;BME280;55800;54.272;18.558;2023-04-05T03:43:34;101602.72;;;-0.35;53.85
68807;BME280;55800;54.272;18.558;2023-04-05T03:46:05;101602.69;;;-0.38;53.72
68807;BME280;55800;54.272;18.558;2023-04-05T03:48:36;101614.94;;;-0.37;54.07
68807;BME280;55800;54.272;18.558;2023-04-05T03:51:05;101609.63;;;-0.40;53.68
68807;BME280;55800;54.272;18.558;2023-04-05T03:53:35;101607.03;;;-0.39;53.26
68807;BME280;55800;54.272;18.558;2023-04-05T03:56:05;101605.25;;;-0.41;53.67
68807;BME280;55800;54.272;18.558;2023-04-05T03:58:48;101613.94;;;-0.44;52.98
68807;BME280;55800;54.272;18.558;2023-04-05T04:01:23;101601.63;;;-0.46;54.00
68807;BME280;55800;54.272;18.558;2023-04-05T04:03:55;101585.97;;;-0.42;53.90
68807;BME280;55800;54.272;18.558;2023-04-05T04:06:24;101599.91;;;-0.46;53.78
68807;BME280;55800;54.272;18.558;2023-04-05T04:08:54;101595.47;;;-0.48;53.17
68807;BME280;55800;54.272;18.558;2023-04-05T04:11:24;101598.09;;;-0.48;52.48
68807;BME280;55800;54.272;18.558;2023-04-05T04:13:54;101598.81;;;-0.57;54.09
68807;BME280;55800;54.272;18.558;2023-04-05T04:16:36;101601.41;;;-0.60;54.41
68807;BME280;55800;54.272;18.558;2023-04-05T04:19:32;101604.13;;;-0.55;53.06
68807;BME280;55800;54.272;18.558;2023-04-05T04:22:05;101608.41;;;-0.59;52.95
68807;BME280;55800;54.272;18.558;2023-04-05T04:25:00;101610.13;;;-0.61;53.21
68807;BME280;55800;54.272;18.558;2023-04-05T04:27:31;101608.31;;;-0.63;54.46
68807;BME280;55800;54.272;18.558;2023-04-05T04:30:26;101604.94;;;-0.58;53.35
68807;BME280;55800;54.272;18.558;2023-04-05T04:33:26;101603.13;;;-0.62;55.36
68807;BME280;55800;54.272;18.558;2023-04-05T04:36:16;101604.03;;;-0.58;54.61
68807;BME280;55800;54.272;18.558;2023-04-05T04:39:15;101616.34;;;-0.57;54.52
68807;BME280;55800;54.272;18.558;2023-04-05T04:42:03;101611.13;;;-0.54;54.50
68807;BME280;55800;54.272;18.558;2023-04-05T04:44:52;101613.03;;;-0.46;55.80
68807;BME280;55800;54.272;18.558;2023-04-05T04:47:47;101608.66;;;-0.47;54.99
68807;BME280;55800;54.272;18.558;2023-04-05T04:50:38;101612.13;;;-0.48;55.52
68807;BME280;55800;54.272;18.558;2023-04-05T04:53:10;101613.03;;;-0.46;54.98
68807;BME280;55800;54.272;18.558;2023-04-05T04:55:40;101609.59;;;-0.42;56.63
68807;BME280;55800;54.272;18.558;2023-04-05T04:58:10;101609.63;;;-0.40;56.29
68807;BME280;55800;54.272;18.558;2023-04-05T05:00:42;101606.16;;;-0.38;56.42
68807;BME280;55800;54.272;18.558;2023-04-05T05:03:12;101609.88;;;-0.27;56.64
68807;BME280;55800;54.272;18.558;2023-04-05T05:05:42;101607.34;;;-0.21;55.53
68807;BME280;55800;54.272;18.558;2023-04-05T05:08:14;101607.53;;;-0.12;56.24
68807;BME280;55800;54.272;18.558;2023-04-05T05:10:50;101606.59;;;-0.15;55.81
68807;BME280;55800;54.272;18.558;2023-04-05T05:13:20;101595.09;;;-0.22;55.40
68807;BME280;55800;54.272;18.558;2023-04-05T05:15:49;101600.34;;;-0.22;55.76
68807;BME280;55800;54.272;18.558;2023-04-05T05:18:20;101602.09;;;-0.21;56.41
68807;BME280;55800;54.272;18.558;2023-04-05T05:20:50;101595.22;;;-0.13;55.81
68807;BME280;55800;54.272;18.558;2023-04-05T05:23:23;101591.84;;;-0.06;55.67
68807;BME280;55800;54.272;18.558;2023-04-05T05:25:57;101592.00;;;0.04;56.28
68807;BME280;55800;54.272;18.558;2023-04-05T05:28:27;101594.66;;;0.07;56.00
68807;BME280;55800;54.272;18.558;2023-04-05T05:30:56;101592.34;;;0.25;56.33
68807;BME280;55800;54.272;18.558;2023-04-05T05:33:29;101588.81;;;0.23;56.59
68807;BME280;55800;54.272;18.558;2023-04-05T05:35:58;101590.75;;;0.36;56.28
68807;BME280;55800;54.272;18.558;2023-04-05T05:38:29;101592.59;;;0.43;56.35
68807;BME280;55800;54.272;18.558;2023-04-05T05:40:58;101586.63;;;0.53;56.42
68807;BME280;55800;54.272;18.558;2023-04-05T05:43:28;101590.84;;;0.42;56.04
68807;BME280;55800;54.272;18.558;2023-04-05T05:46:00;101586.44;;;0.41;56.52
68807;BME280;55800;54.272;18.558;2023-04-05T05:48:30;101590.03;;;0.47;55.84
68807;BME280;55800;54.272;18.558;2023-04-05T05:51:01;101592.69;;;0.49;57.17
68807;BME280;55800;54.272;18.558;2023-04-05T05:53:38;101588.53;;;0.66;56.80
68807;BME280;55800;54.272;18.558;2023-04-05T05:56:07;101591.22;;;0.69;57.03
68807;BME280;55800;54.272;18.558;2023-04-05T05:58:37;101598.38;;;0.79;55.75
68807;BME280;55800;54.272;18.558;2023-04-05T06:01:07;101600.19;;;0.83;56.89
68807;BME280;55800;54.272;18.558;2023-04-05T06:03:39;101593.38;;;1.00;56.87
68807;BME280;55800;54.272;18.558;2023-04-05T06:06:08;101595.31;;;1.15;56.56
68807;BME280;55800;54.272;18.558;2023-04-05T06:08:40;101590.09;;;1.19;56.42
68807;BME280;55800;54.272;18.558;2023-04-05T06:11:17;101586.69;;;1.28;56.71
68807;BME280;55800;54.272;18.558;2023-04-05T06:13:47;101588.53;;;1.33;56.63
68807;BME280;55800;54.272;18.558;2023-04-05T06:16:17;101594.75;;;1.44;56.77
68807;BME280;55800;54.272;18.558;2023-04-05T06:18:47;101588.69;;;1.51;56.26
68807;BME280;55800;54.272;18.558;2023-04-05T06:21:16;101589.66;;;1.56;55.95
68807;BME280;55800;54.272;18.558;2023-04-05T06:23:47;101591.44;;;1.64;56.27
68807;BME280;55800;54.272;18.558;2023-04-05T06:26:17;101588.75;;;1.57;56.46
68807;BME280;55800;54.272;18.558;2023-04-05T06:28:47;101587.16;;;1.72;56.65
68807;BME280;55800;54.272;18.558;2023-04-05T06:31:18;101592.50;;;1.81;55.56
68807;BME280;55800;54.272;18.558;2023-04-05T06:33:48;101585.56;;;1.89;55.38
68807;BME280;55800;54.272;18.558;2023-04-05T06:36:17;101587.34;;;1.96;55.43
68807;BME280;55800;54.272;18.558;2023-04-05T06:38:49;101587.44;;;2.05;55.62
68807;BME280;55800;54.272;18.558;2023-04-05T06:41:18;101582.16;;;2.08;55.83
68807;BME280;55800;54.272;18.558;2023-04-05T06:43:48;101578.72;;;2.15;55.40
68807;BME280;55800;54.272;18.558;2023-04-05T06:46:17;101578.78;;;2.24;55.25
68807;BME280;55800;54.272;18.558;2023-04-05T06:48:47;101576.19;;;2.30;55.19
68807;BME280;55800;54.272;18.558;2023-04-05T06:51:16;101579.75;;;2.36;55.11
68807;BME280;55800;54.272;18.558;2023-04-05T06:53:47;101576.31;;;2.45;55.06
68807;BME280;55800;54.272;18.558;2023-04-05T06:56:17;101579.88;;;2.50;54.78
68807;BME280;55800;54.272;18.558;2023-04-05T06:58:46;101586.06;;;2.58;54.81
68807;BME280;55800;54.272;18.558;2023-04-05T07:01:16;101589.66;;;2.69;54.77
68807;BME280;55800;54.272;18.558;2023-04-05T07:03:46;101591.44;;;2.76;54.46
68807;BME280;55800;54.272;18.558;2023-04-05T07:06:15;101583.56;;;2.85;54.50
68807;BME280;55800;54.272;18.558;2023-04-05T07:08:45;101582.72;;;2.92;54.56
68807;BME280;55800;54.272;18.558;2023-04-05T07:11:16;101582.75;;;2.98;54.37
68807;BME280;55800;54.272;18.558;2023-04-05T07:13:45;101578.38;;;3.08;54.53
68807;BME280;55800;54.272;18.558;2023-04-05T07:16:14;101575.75;;;3.18;54.44
68807;BME280;55800;54.272;18.558;2023-04-05T07:18:46;101581.09;;;3.28;54.63
68807;BME280;55800;54.272;18.558;2023-04-05T07:21:15;101585.50;;;3.33;54.47
68807;BME280;55800;54.272;18.558;2023-04-05T07:23:45;101577.59;;;3.41;54.52
68807;BME280;55800;54.272;18.558;2023-04-05T07:26:16;101579.38;;;3.51;54.50
68807;BME280;55800;54.272;18.558;2023-04-05T07:28:45;101575.00;;;3.62;54.41
68807;BME280;55800;54.272;18.558;2023-04-05T07:31:14;101578.53;;;3.68;53.74
68807;BME280;55800;54.272;18.558;2023-04-05T07:33:44;101586.47;;;3.73;54.37
68807;BME280;55800;54.272;18.558;2023-04-05T07:36:13;101575.91;;;3.85;54.33
68807;BME280;55800;54.272;18.558;2023-04-05T07:38:43;101580.31;;;3.92;54.41
68807;BME280;55800;54.272;18.558;2023-04-05T07:41:12;101580.31;;;4.01;54.51
68807;BME280;55800;54.272;18.558;2023-04-05T07:43:45;101582.97;;;4.10;54.21
68807;BME280;55800;54.272;18.558;2023-04-05T07:46:14;101575.88;;;4.18;54.44
68807;BME280;55800;54.272;18.558;2023-04-05T07:48:46;101574.16;;;4.26;54.12
68807;BME280;55800;54.272;18.558;2023-04-05T07:51:15;101574.09;;;4.35;54.17
68807;BME280;55800;54.272;18.558;2023-04-05T07:53:45;101574.09;;;4.41;53.06
68807;BME280;55800;54.272;18.558;2023-04-05T07:56:15;101572.34;;;4.45;53.32
68807;BME280;55800;54.272;18.558;2023-04-05T07:58:46;101572.31;;;4.52;53.48
68807;BME280;55800;54.272;18.558;2023-04-05T08:01:17;101575.88;;;4.51;53.53
68807;BME280;55800;54.272;18.558;2023-04-05T08:03:46;101576.72;;;4.55;52.78
68807;BME280;55800;54.272;18.558;2023-04-05T08:06:16;101576.72;;;4.56;53.27
68807;BME280;55800;54.272;18.558;2023-04-05T08:08:46;101567.88;;;4.59;52.76
68807;BME280;55800;54.272;18.558;2023-04-05T08:11:15;101575.84;;;4.56;52.31
68807;BME280;55800;54.272;18.558;2023-04-05T08:13:46;101577.59;;;4.61;52.94
68807;BME280;55800;54.272;18.558;2023-04-05T08:16:16;101577.59;;;4.61;52.32
68807;BME280;55800;54.272;18.558;2023-04-05T08:18:45;101568.78;;;4.59;52.57
68807;BME280;55800;54.272;18.558;2023-04-05T08:21:14;101573.19;;;4.63;52.98
68807;BME280;55800;54.272;18.558;2023-04-05T08:23:44;101572.31;;;4.55;53.33
68807;BME280;55800;54.272;18.558;2023-04-05T08:26:13;101577.63;;;4.55;52.69
68807;BME280;55800;54.272;18.558;2023-04-05T08:28:43;101575.81;;;4.63;52.96
68807;BME280;55800;54.272;18.558;2023-04-05T08:31:13;101566.13;;;4.56;53.08
68807;BME280;55800;54.272;18.558;2023-04-05T08:33:43;101566.13;;;4.59;52.71
68807;BME280;55800;54.272;18.558;2023-04-05T08:36:12;101571.44;;;4.59;53.00
68807;BME280;55800;54.272;18.558;2023-04-05T08:38:41;101574.06;;;4.59;53.17
68807;BME280;55800;54.272;18.558;2023-04-05T08:41:16;101573.16;;;4.68;53.35
68807;BME280;55800;54.272;18.558;2023-04-05T08:43:55;101563.44;;;4.74;53.43
68807;BME280;55800;54.272;18.558;2023-04-05T08:46:29;101569.59;;;4.75;53.01
68807;BME280;55800;54.272;18.558;2023-04-05T08:49:01;101574.88;;;4.84;53.19
68807;BME280;55800;54.272;18.558;2023-04-05T08:51:36;101570.47;;;4.88;52.93
68807;BME280;55800;54.272;18.558;2023-04-05T08:54:07;101569.53;;;4.99;52.79
68807;BME280;55800;54.272;18.558;2023-04-05T08:56:38;101571.28;;;5.03;53.17
68807;BME280;55800;54.272;18.558;2023-04-05T08:59:10;101561.53;;;5.10;52.71
68807;BME280;55800;54.272;18.558;2023-04-05T09:01:43;101545.56;;;5.23;53.20
68807;BME280;55800;54.272;18.558;2023-04-05T09:04:19;101549.03;;;5.36;52.74
68807;BME280;55800;54.272;18.558;2023-04-05T09:06:50;101553.41;;;5.44;52.11
68807;BME280;55800;54.272;18.558;2023-04-05T09:09:20;101561.31;;;5.49;52.47
68807;BME280;55800;54.272;18.558;2023-04-05T09:11:50;101553.34;;;5.50;52.31
68807;BME280;55800;54.272;18.558;2023-04-05T09:14:20;101557.75;;;5.53;52.24
68807;BME280;55800;54.272;18.558;2023-04-05T09:16:51;101563.06;;;5.53;52.55
68807;BME280;55800;54.272;18.558;2023-04-05T09:19:21;101572.81;;;5.46;52.08
68807;BME280;55800;54.272;18.558;2023-04-05T09:22:00;101570.25;;;5.36;51.45
68807;BME280;55800;54.272;18.558;2023-04-05T09:24:37;101567.66;;;5.25;51.73
68807;BME280;55800;54.272;18.558;2023-04-05T09:27:09;101570.28;;;5.24;51.92
68807;BME280;55800;54.272;18.558;2023-04-05T09:29:40;101579.16;;;5.14;51.84
68807;BME280;55800;54.272;18.558;2023-04-05T09:32:12;101572.16;;;5.07;52.15
68807;BME280;55800;54.272;18.558;2023-04-05T09:34:42;101583.66;;;4.97;52.45
68807;BME280;55800;54.272;18.558;2023-04-05T09:37:20;101586.31;;;4.92;52.66
68807;BME280;55800;54.272;18.558;2023-04-05T09:39:51;101579.28;;;4.90;52.73
68807;BME280;55800;54.272;18.558;2023-04-05T09:42:33;101581.06;;;4.88;52.23
68807;BME280;55800;54.272;18.558;2023-04-05T09:45:11;101582.78;;;4.99;52.46
68807;BME280;55800;54.272;18.558;2023-04-05T09:47:56;101581.91;;;4.94;52.13
68807;BME280;55800;54.272;18.558;2023-04-05T09:50:26;101582.75;;;5.07;52.17
68807;BME280;55800;54.272;18.558;2023-04-05T09:53:06;101582.78;;;4.99;52.51
68807;BME280;55800;54.272;18.558;2023-04-05T09:55:36;101589.84;;;4.97;52.77
68807;BME280;55800;54.272;18.558;2023-04-05T09:58:11;101584.50;;;5.05;52.20
68807;BME280;55800;54.272;18.558;2023-04-05T10:00:48;101580.97;;;5.06;52.70
68807;BME280;55800;54.272;18.558;2023-04-05T10:03:47;101591.59;;;5.06;52.43
68807;BME280;55800;54.272;18.558;2023-04-05T10:06:17;101580.09;;;5.05;52.67
68807;BME280;55800;54.272;18.558;2023-04-05T10:08:46;101585.41;;;5.07;52.52
68807;BME280;55800;54.272;18.558;2023-04-05T10:11:17;101584.50;;;5.09;52.99
68807;BME280;55800;54.272;18.558;2023-04-05T10:13:49;101582.69;;;5.19;52.63
68807;BME280;55800;54.272;18.558;2023-04-05T10:16:20;101583.59;;;5.19;52.45
68807;BME280;55800;54.272;18.558;2023-04-05T10:18:53;101586.22;;;5.21;52.56
68807;BME280;55800;54.272;18.558;2023-04-05T10:21:26;101582.66;;;5.28;52.24
68807;BME280;55800;54.272;18.558;2023-04-05T10:24:04;101580.88;;;5.30;52.71
68807;BME280;55800;54.272;18.558;2023-04-05T10:26:42;101584.38;;;5.35;52.82
68807;BME280;55800;54.272;18.558;2023-04-05T10:29:19;101580.81;;;5.39;52.77
68807;BME280;55800;54.272;18.558;2023-04-05T10:31:58;101583.41;;;5.48;52.23
68807;BME280;55800;54.272;18.558;2023-04-05T10:34:33;101584.25;;;5.54;53.01
68807;BME280;55800;54.272;18.558;2023-04-05T10:37:05;101585.09;;;5.63;53.11
68807;BME280;55800;54.272;18.558;2023-04-05T10:39:41;101591.22;;;5.74;53.26
68807;BME280;55800;54.272;18.558;2023-04-05T10:42:17;101582.31;;;5.84;53.25
68807;BME280;55800;54.272;18.558;2023-04-05T10:44:51;101591.13;;;5.93;52.97
68807;BME280;55800;54.272;18.558;2023-04-05T10:47:23;101579.50;;;6.05;53.15
68807;BME280;55800;54.272;18.558;2023-04-05T10:49:59;101587.38;;;6.15;53.37
68807;BME280;55800;54.272;18.558;2023-04-05T10:52:34;101584.66;;;6.24;52.47
68807;BME280;55800;54.272;18.558;2023-04-05T10:55:05;101579.25;;;6.34;52.89
68807;BME280;55800;54.272;18.558;2023-04-05T10:57:36;101580.06;;;6.45;53.22
68807;BME280;55800;54.272;18.558;2023-04-05T11:00:08;101577.31;;;6.51;52.94
68807;BME280;55800;54.272;18.558;2023-04-05T11:02:40;101584.31;;;6.59;52.96
68807;BME280;55800;54.272;18.558;2023-04-05T11:05:31;101585.97;;;6.69;52.47
68807;BME280;55800;54.272;18.558;2023-04-05T11:08:05;101583.28;;;6.74;52.84
68807;BME280;55800;54.272;18.558;2023-04-05T11:10:36;101576.19;;;6.73;50.78
68807;BME280;55800;54.272;18.558;2023-04-05T11:13:08;101584.09;;;6.79;52.37
68807;BME280;55800;54.272;18.558;2023-04-05T11:15:41;101586.72;;;6.85;52.56
68807;BME280;55800;54.272;18.558;2023-04-05T11:18:11;101581.34;;;6.88;52.58
68807;BME280;55800;54.272;18.558;2023-04-05T11:20:51;101588.41;;;6.90;52.38
68807;BME280;55800;54.272;18.558;2023-04-05T11:23:23;101598.13;;;6.91;52.15
68807;BME280;55800;54.272;18.558;2023-04-05T11:25:55;101594.59;;;6.89;52.29
68807;BME280;55800;54.272;18.558;2023-04-05T11:28:29;101599.94;;;6.88;51.88
68807;BME280;55800;54.272;18.558;2023-04-05T11:31:12;101599.97;;;6.86;52.17
68807;BME280;55800;54.272;18.558;2023-04-05T11:34:04;101600.88;;;6.84;52.12
68807;BME280;55800;54.272;18.558;2023-04-05T11:36:43;101602.69;;;6.79;51.61
68807;BME280;55800;54.272;18.558;2023-04-05T11:39:25;101593.03;;;6.73;50.51
68807;BME280;55800;54.272;18.558;2023-04-05T11:42:10;101591.31;;;6.66;51.65
68807;BME280;55800;54.272;18.558;2023-04-05T11:44:43;101594.84;;;6.67;52.00
68807;BME280;55800;54.272;18.558;2023-04-05T11:47:16;101601.09;;;6.66;52.15
68807;BME280;55800;54.272;18.558;2023-04-05T11:49:50;101602.84;;;6.64;51.70
68807;BME280;55800;54.272;18.558;2023-04-05T11:52:21;101594.03;;;6.60;51.66
68807;BME280;55800;54.272;18.558;2023-04-05T11:54:51;101596.72;;;6.59;51.70
68807;BME280;55800;54.272;18.558;2023-04-05T11:57:22;101594.09;;;6.56;51.90
68807;BME280;55800;54.272;18.558;2023-04-05T11:59:54;101591.44;;;6.56;52.08
68807;BME280;55800;54.272;18.558;2023-04-05T12:02:23;101598.50;;;6.58;51.69
68807;BME280;55800;54.272;18.558;2023-04-05T12:04:54;101598.47;;;6.61;51.47
68807;BME280;55800;54.272;18.558;2023-04-05T12:07:27;101594.91;;;6.62;51.38
68807;BME280;55800;54.272;18.558;2023-04-05T12:10:02;101584.25;;;6.64;51.51
68807;BME280;55800;54.272;18.558;2023-04-05T12:12:37;101588.63;;;6.71;51.39
68807;BME280;55800;54.272;18.558;2023-04-05T12:15:08;101582.34;;;6.78;51.78
68807;BME280;55800;54.272;18.558;2023-04-05T12:17:44;101585.88;;;6.80;51.60
68807;BME280;55800;54.272;18.558;2023-04-05T12:20:15;101587.53;;;6.88;51.58
68807;BME280;55800;54.272;18.558;2023-04-05T12:22:48;101589.25;;;6.95;51.77
68807;BME280;55800;54.272;18.558;2023-04-05T12:25:20;101580.28;;;7.02;50.80
68807;BME280;55800;54.272;18.558;2023-04-05T12:27:49;101577.56;;;7.07;51.65
68807;BME280;55800;54.272;18.558;2023-04-05T12:30:19;101580.16;;;7.12;50.89
68807;BME280;55800;54.272;18.558;2023-04-05T12:32:51;101575.81;;;7.06;51.35
68807;BME280;55800;54.272;18.558;2023-04-05T12:35:23;101565.06;;;7.14;52.10
68807;BME280;55800;54.272;18.558;2023-04-05T12:38:01;101575.66;;;7.18;51.52
68807;BME280;55800;54.272;18.558;2023-04-05T12:40:34;101574.75;;;7.21;51.33
68807;BME280;55800;54.272;18.558;2023-04-05T12:43:05;101568.63;;;7.14;51.03
68807;BME280;55800;54.272;18.558;2023-04-05T12:45:35;101577.63;;;7.04;51.78
68807;BME280;55800;54.272;18.558;2023-04-05T12:48:11;101584.72;;;7.00;51.85
68807;BME280;55800;54.272;18.558;2023-04-05T12:50:42;101583.81;;;7.03;50.77
68807;BME280;55800;54.272;18.558;2023-04-05T12:53:18;101575.81;;;7.06;51.88
68807;BME280;55800;54.272;18.558;2023-04-05T12:55:49;101579.38;;;7.03;52.06
68807;BME280;55800;54.272;18.558;2023-04-05T12:58:20;101581.16;;;7.03;51.04
68807;BME280;55800;54.272;18.558;2023-04-05T13:00:49;101577.59;;;7.02;51.25
68807;BME280;55800;54.272;18.558;2023-04-05T13:03:19;101575.03;;;6.96;51.17
68807;BME280;55800;54.272;18.558;2023-04-05T13:05:51;101574.16;;;6.96;51.08
68807;BME280;55800;54.272;18.558;2023-04-05T13:08:21;101583.00;;;6.96;51.70
68807;BME280;55800;54.272;18.558;2023-04-05T13:10:51;101576.03;;;6.88;50.97
68807;BME280;55800;54.272;18.558;2023-04-05T13:13:24;101580.41;;;6.92;51.83
68807;BME280;55800;54.272;18.558;2023-04-05T13:15:54;101578.63;;;6.92;51.90
68807;BME280;55800;54.272;18.558;2023-04-05T13:18:23;101578.72;;;6.85;50.95
68807;BME280;55800;54.272;18.558;2023-04-05T13:20:53;101579.63;;;6.81;51.04
68807;BME280;55800;54.272;18.558;2023-04-05T13:23:23;101582.38;;;6.76;51.11